logo tempoitalia

Diretta Meteo Liberal, Stati Uniti (USA)lunedì 31 agosto ore 00:56

Mappa
Sereno 26 °C Sereno 24 Ore: T.min 22 T.max 38
Ponente Sud Km/h 14.8 Punto di rugiada: 15 °C Umidità: 50% Visibilità: 10 Km
Il sole sorge alle: 07:14 Il sole tramonta alle: 20:14
31 Agosto 2026 00:56 tempo osservato: Sereno Sereno 26 50 1015 vento: Nord S 14.8
30 Agosto 2026 23:56 tempo osservato: Sereno Sereno 27 44 1014 vento: Nord S 22.2
30 Agosto 2026 22:56 tempo osservato: Sereno Sereno 28 42 1013 vento: Nord S/SE 27.8
30 Agosto 2026 21:56 tempo osservato: Sereno Sereno 29 39 1012 vento: Nord S/SE 20.3
30 Agosto 2026 20:56 tempo osservato: Sereno Sereno 30 40 1012 vento: Nord S/SE 22.2
30 Agosto 2026 19:56 tempo osservato: Sereno Sereno 32 38 1011 vento: Nord S 18.5
30 Agosto 2026 18:56 tempo osservato: Sereno Sereno 36 32 1011 vento: Nord S 22.2
30 Agosto 2026 17:56 tempo osservato: Sereno Sereno 38 29 1011 vento: Nord N 0
30 Agosto 2026 16:56 tempo osservato: Sereno Sereno 38 29 1011 vento: Nord N 5.5
30 Agosto 2026 15:56 tempo osservato: Sereno Sereno 38 29 1012 vento: Nord O 11.1
30 Agosto 2026 14:56 tempo osservato: Sereno Sereno 37 30 1013 vento: Nord O 7.4
30 Agosto 2026 13:56 tempo osservato: Sereno Sereno 36 32 1014 vento: Nord O/SO 16.7
30 Agosto 2026 12:56 tempo osservato: Sereno Sereno 34 36 1015 vento: Nord O/SO 13
30 Agosto 2026 11:56 tempo osservato: Sereno Sereno 33 36 1015 vento: Nord O 16.7
30 Agosto 2026 10:56 tempo osservato: Sereno Sereno 31 40 1015 vento: Nord O/SO 20.3
30 Agosto 2026 09:56 tempo osservato: Sereno Sereno 28 48 1015 vento: Nord O/SO 14.8
30 Agosto 2026 08:56 tempo osservato: Sereno Sereno 24 60 1015 vento: Nord SO 13
30 Agosto 2026 07:56 tempo osservato: Sereno Sereno 22 64 1014 vento: Nord S/SO 16.7
30 Agosto 2026 06:56 tempo osservato: Sereno Sereno 22 60 1014 vento: Nord S 20.3
30 Agosto 2026 05:56 tempo osservato: Sereno Sereno 22 64 1014 vento: Nord S 16.7
30 Agosto 2026 04:56 tempo osservato: Sereno Sereno 23 56 1014 vento: Nord S 20.3
30 Agosto 2026 03:56 tempo osservato: Sereno Sereno 24 53 1013 vento: Nord S 22.2
30 Agosto 2026 02:56 tempo osservato: Sereno Sereno 24 57 1014 vento: Nord S 18.5
30 Agosto 2026 01:56 tempo osservato: Sereno Sereno 23 64 1014 vento: Nord S 14.8